sensor_id;sensor_type;location;lat;lon;timestamp;pressure;altitude;pressure_sealevel;temperature;humidity
71043;BME280;58696;52.134;5.500;2023-02-16T00:01:23;102527.66;;;4.92;84.42
71043;BME280;58696;52.134;5.500;2023-02-16T00:03:54;102525.41;;;4.88;84.57
71043;BME280;58696;52.134;5.500;2023-02-16T00:06:26;102537.34;;;4.87;84.63
71043;BME280;58696;52.134;5.500;2023-02-16T00:08:55;102523.09;;;4.85;84.63
71043;BME280;58696;52.134;5.500;2023-02-16T00:11:31;102523.28;;;4.82;84.64
71043;BME280;58696;52.134;5.500;2023-02-16T00:14:18;102523.69;;;4.75;84.74
71043;BME280;58696;52.134;5.500;2023-02-16T00:16:52;102520.75;;;4.69;84.77
71043;BME280;58696;52.134;5.500;2023-02-16T00:19:24;102525.13;;;4.67;85.00
71043;BME280;58696;52.134;5.500;2023-02-16T00:21:56;102521.06;;;4.64;85.10
71043;BME280;58696;52.134;5.500;2023-02-16T00:24:25;102521.16;;;4.63;85.21
71043;BME280;58696;52.134;5.500;2023-02-16T00:26:56;102522.38;;;4.57;85.29
71043;BME280;58696;52.134;5.500;2023-02-16T00:29:31;102532.56;;;4.57;85.30
71043;BME280;58696;52.134;5.500;2023-02-16T00:31:59;102524.13;;;4.57;85.32
71043;BME280;58696;52.134;5.500;2023-02-16T00:34:33;102527.66;;;4.54;85.51
71043;BME280;58696;52.134;5.500;2023-02-16T00:37:08;102525.41;;;4.49;85.70
71043;BME280;58696;52.134;5.500;2023-02-16T00:39:36;102533.06;;;4.49;85.72
71043;BME280;58696;52.134;5.500;2023-02-16T00:42:13;102518.28;;;4.55;85.87
71043;BME280;58696;52.134;5.500;2023-02-16T00:44:56;102521.13;;;4.50;85.83
71043;BME280;58696;52.134;5.500;2023-02-16T00:47:37;102512.78;;;4.48;85.83
71043;BME280;58696;52.134;5.500;2023-02-16T00:50:14;102509.53;;;4.46;85.88
71043;BME280;58696;52.134;5.500;2023-02-16T00:52:44;102508.22;;;4.40;85.79
71043;BME280;58696;52.134;5.500;2023-02-16T00:55:14;102505.84;;;4.37;85.83
71043;BME280;58696;52.134;5.500;2023-02-16T00:57:45;102512.47;;;4.27;85.89
71043;BME280;58696;52.134;5.500;2023-02-16T01:00:26;102514.47;;;4.22;85.94
71043;BME280;58696;52.134;5.500;2023-02-16T01:02:59;102525.69;;;4.19;86.13
71043;BME280;58696;52.134;5.500;2023-02-16T01:05:32;102504.19;;;4.23;86.23
71043;BME280;58696;52.134;5.500;2023-02-16T01:07:59;102503.19;;;4.26;86.28
71043;BME280;58696;52.134;5.500;2023-02-16T01:10:45;102499.31;;;4.20;86.33
71043;BME280;58696;52.134;5.500;2023-02-16T01:13:38;102497.19;;;4.14;86.30
71043;BME280;58696;52.134;5.500;2023-02-16T01:16:19;102497.38;;;4.11;86.30
71043;BME280;58696;52.134;5.500;2023-02-16T01:18:47;102501.75;;;4.09;86.37
71043;BME280;58696;52.134;5.500;2023-02-16T01:21:16;102505.22;;;4.08;86.48
71043;BME280;58696;52.134;5.500;2023-02-16T01:23:43;102495.03;;;4.08;86.46
71043;BME280;58696;52.134;5.500;2023-02-16T01:26:14;102511.09;;;4.09;86.65
71043;BME280;58696;52.134;5.500;2023-02-16T01:28:41;102506.03;;;4.09;86.81
71043;BME280;58696;52.134;5.500;2023-02-16T01:31:10;102496.38;;;4.14;86.95
71043;BME280;58696;52.134;5.500;2023-02-16T01:33:38;102502.34;;;4.13;87.02
71043;BME280;58696;52.134;5.500;2023-02-16T01:36:06;102493.72;;;4.15;86.54
71043;BME280;58696;52.134;5.500;2023-02-16T01:38:46;102488.00;;;4.12;86.62
71043;BME280;58696;52.134;5.500;2023-02-16T01:44:37;102478.97;;;4.08;86.85
71043;BME280;58696;52.134;5.500;2023-02-16T01:49:51;102475.91;;;4.03;87.02
71043;BME280;58696;52.134;5.500;2023-02-16T01:52:26;102481.69;;;4.05;87.20
71043;BME280;58696;52.134;5.500;2023-02-16T02:03:27;102469.38;;;4.11;87.53
71043;BME280;58696;52.134;5.500;2023-02-16T02:06:14;102467.84;;;4.09;87.49
71043;BME280;58696;52.134;5.500;2023-02-16T02:09:06;102472.72;;;4.12;87.36
71043;BME280;58696;52.134;5.500;2023-02-16T02:11:40;102467.25;;;4.18;87.42
71043;BME280;58696;52.134;5.500;2023-02-16T02:14:23;102461.03;;;4.22;87.40
71043;BME280;58696;52.134;5.500;2023-02-16T02:17:02;102457.59;;;4.23;87.47
71043;BME280;58696;52.134;5.500;2023-02-16T02:19:41;102453.31;;;4.23;87.57
71043;BME280;58696;52.134;5.500;2023-02-16T02:25:35;102459.13;;;4.38;
71043;BME280;58696;52.134;5.500;2023-02-16T02:28:16;102452.91;;;4.42;87.64
71043;BME280;58696;52.134;5.500;2023-02-16T02:31:15;102444.75;;;4.50;87.52
71043;BME280;58696;52.134;5.500;2023-02-16T02:37:13;102444.28;;;4.58;87.41
71043;BME280;58696;52.134;5.500;2023-02-16T02:45:21;102436.41;;;4.73;87.07
71043;BME280;58696;52.134;5.500;2023-02-16T02:47:50;102442.31;;;4.74;86.80
71043;BME280;58696;52.134;5.500;2023-02-16T02:50:38;102435.59;;;4.73;86.76
71043;BME280;58696;52.134;5.500;2023-02-16T02:53:26;102435.69;;;4.71;86.66
71043;BME280;58696;52.134;5.500;2023-02-16T02:55:57;102430.91;;;4.67;86.61
71043;BME280;58696;52.134;5.500;2023-02-16T02:58:47;102436.22;;;4.64;86.70
71043;BME280;58696;52.134;5.500;2023-02-16T03:01:42;102430.81;;;4.68;86.79
71043;BME280;58696;52.134;5.500;2023-02-16T03:04:16;102425.00;;;4.66;86.70
71043;BME280;58696;52.134;5.500;2023-02-16T03:06:47;102427.53;;;4.66;86.85
71043;BME280;58696;52.134;5.500;2023-02-16T03:09:15;102428.34;;;4.67;86.81
71043;BME280;58696;52.134;5.500;2023-02-16T03:11:48;102422.56;;;4.65;86.99
71043;BME280;58696;52.134;5.500;2023-02-16T03:14:55;102415.84;;;4.64;86.89
71043;BME280;58696;52.134;5.500;2023-02-16T03:17:32;102414.22;;;4.63;86.93
71043;BME280;58696;52.134;5.500;2023-02-16T03:20:19;102411.88;;;4.60;86.89
71043;BME280;58696;52.134;5.500;2023-02-16T03:23:06;102411.38;;;4.55;86.78
71043;BME280;58696;52.134;5.500;2023-02-16T03:25:53;102403.09;;;4.51;86.90
71043;BME280;58696;52.134;5.500;2023-02-16T03:28:41;102401.47;;;4.50;86.92
71043;BME280;58696;52.134;5.500;2023-02-16T03:31:31;102399.66;;;4.52;87.07
71043;BME280;58696;52.134;5.500;2023-02-16T03:34:03;102399.25;;;4.58;87.22
71043;BME280;58696;52.134;5.500;2023-02-16T03:36:36;102401.38;;;4.64;86.95
71043;BME280;58696;52.134;5.500;2023-02-16T03:39:04;102406.97;;;4.69;87.00
71043;BME280;58696;52.134;5.500;2023-02-16T03:41:40;102405.84;;;4.73;87.21
71043;BME280;58696;52.134;5.500;2023-02-16T03:44:08;102417.44;;;4.78;86.92
71043;BME280;58696;52.134;5.500;2023-02-16T03:46:40;102407.16;;;4.79;87.01
71043;BME280;58696;52.134;5.500;2023-02-16T03:49:07;102414.38;;;4.85;86.88
71043;BME280;58696;52.134;5.500;2023-02-16T03:51:37;102406.44;;;4.90;86.94
71043;BME280;58696;52.134;5.500;2023-02-16T03:54:07;102404.47;;;4.93;86.57
71043;BME280;58696;52.134;5.500;2023-02-16T03:56:33;102411.78;;;4.98;86.51
71043;BME280;58696;52.134;5.500;2023-02-16T03:59:00;102405.69;;;5.00;86.43
71043;BME280;58696;52.134;5.500;2023-02-16T04:01:26;102413.91;;;5.04;86.34
71043;BME280;58696;52.134;5.500;2023-02-16T04:03:53;102424.00;;;5.06;86.44
71043;BME280;58696;52.134;5.500;2023-02-16T04:06:20;102422.28;;;5.06;86.43
71043;BME280;58696;52.134;5.500;2023-02-16T04:08:49;102418.69;;;5.09;86.22
71043;BME280;58696;52.134;5.500;2023-02-16T04:11:16;102413.59;;;5.09;85.96
71043;BME280;58696;52.134;5.500;2023-02-16T04:14:02;102420.22;;;5.11;85.97
71043;BME280;58696;52.134;5.500;2023-02-16T04:16:29;102425.22;;;5.13;85.84
71043;BME280;58696;52.134;5.500;2023-02-16T04:18:56;102427.63;;;5.14;86.00
71043;BME280;58696;52.134;5.500;2023-02-16T04:21:22;102419.88;;;5.16;85.79
71043;BME280;58696;52.134;5.500;2023-02-16T04:23:49;102421.41;;;5.18;85.92
71043;BME280;58696;52.134;5.500;2023-02-16T04:26:18;102424.88;;;5.17;85.70
71043;BME280;58696;52.134;5.500;2023-02-16T04:28:45;102422.22;;;5.19;85.64
71043;BME280;58696;52.134;5.500;2023-02-16T04:31:13;102421.28;;;5.20;85.88
71043;BME280;58696;52.134;5.500;2023-02-16T04:33:40;102418.75;;;5.20;85.88
71043;BME280;58696;52.134;5.500;2023-02-16T04:36:09;102406.94;;;5.19;86.02
71043;BME280;58696;52.134;5.500;2023-02-16T04:38:36;102414.56;;;5.19;85.93
71043;BME280;58696;52.134;5.500;2023-02-16T04:41:05;102412.84;;;5.19;85.96
71043;BME280;58696;52.134;5.500;2023-02-16T04:43:33;102416.19;;;5.20;85.80
71043;BME280;58696;52.134;5.500;2023-02-16T04:46:01;102412.63;;;5.22;86.00
71043;BME280;58696;52.134;5.500;2023-02-16T04:48:29;102426.88;;;5.25;86.06
71043;BME280;58696;52.134;5.500;2023-02-16T04:50:58;102421.66;;;5.26;85.42
71043;BME280;58696;52.134;5.500;2023-02-16T04:53:25;102415.56;;;5.29;85.56
71043;BME280;58696;52.134;5.500;2023-02-16T04:55:52;102419.72;;;5.30;85.54
71043;BME280;58696;52.134;5.500;2023-02-16T04:58:21;102415.31;;;5.32;85.59
71043;BME280;58696;52.134;5.500;2023-02-16T05:00:48;102404.31;;;5.32;85.68
71043;BME280;58696;52.134;5.500;2023-02-16T05:03:18;102398.53;;;5.30;85.58
71043;BME280;58696;52.134;5.500;2023-02-16T05:05:45;102407.91;;;5.29;85.70
71043;BME280;58696;52.134;5.500;2023-02-16T05:08:15;102416.25;;;5.31;85.71
71043;BME280;58696;52.134;5.500;2023-02-16T05:10:46;102403.50;;;5.31;85.68
71043;BME280;58696;52.134;5.500;2023-02-16T05:13:33;102405.13;;;5.32;85.75
71043;BME280;58696;52.134;5.500;2023-02-16T05:16:20;102402.59;;;5.32;85.63
71043;BME280;58696;52.134;5.500;2023-02-16T05:18:49;102399.94;;;5.34;85.66
71043;BME280;58696;52.134;5.500;2023-02-16T05:21:16;102394.13;;;5.32;85.68
71043;BME280;58696;52.134;5.500;2023-02-16T05:23:59;102392.50;;;5.31;85.60
71043;BME280;58696;52.134;5.500;2023-02-16T05:26:27;102385.56;;;5.33;85.70
71043;BME280;58696;52.134;5.500;2023-02-16T05:28:54;102383.00;;;5.33;85.76
71043;BME280;58696;52.134;5.500;2023-02-16T05:31:21;102391.50;;;5.33;85.67
71043;BME280;58696;52.134;5.500;2023-02-16T05:33:49;102385.34;;;5.36;85.68
71043;BME280;58696;52.134;5.500;2023-02-16T05:36:16;102389.50;;;5.37;85.51
71043;BME280;58696;52.134;5.500;2023-02-16T05:38:45;102384.41;;;5.37;86.06
71043;BME280;58696;52.134;5.500;2023-02-16T05:41:12;102375.03;;;5.37;85.79
71043;BME280;58696;52.134;5.500;2023-02-16T05:43:54;102379.44;;;5.35;85.66
71043;BME280;58696;52.134;5.500;2023-02-16T05:46:22;102383.59;;;5.36;85.64
71043;BME280;58696;52.134;5.500;2023-02-16T05:48:50;102394.63;;;5.37;85.85
71043;BME280;58696;52.134;5.500;2023-02-16T05:51:19;102392.06;;;5.37;85.75
71043;BME280;58696;52.134;5.500;2023-02-16T05:53:46;102391.06;;;5.39;85.60
71043;BME280;58696;52.134;5.500;2023-02-16T05:56:14;102394.28;;;5.41;85.60
71043;BME280;58696;52.134;5.500;2023-02-16T05:58:40;102396.03;;;5.41;85.25
71043;BME280;58696;52.134;5.500;2023-02-16T06:01:08;102396.84;;;5.41;85.62
71043;BME280;58696;52.134;5.500;2023-02-16T06:03:35;102375.50;;;5.42;85.45
71043;BME280;58696;52.134;5.500;2023-02-16T06:06:02;102379.91;;;5.40;85.34
71043;BME280;58696;52.134;5.500;2023-02-16T06:08:31;102391.75;;;5.41;85.66
71043;BME280;58696;52.134;5.500;2023-02-16T06:10:58;102394.97;;;5.43;85.30
71043;BME280;58696;52.134;5.500;2023-02-16T06:13:25;102393.38;;;5.42;85.30
71043;BME280;58696;52.134;5.500;2023-02-16T06:15:55;102387.44;;;5.42;85.55
71043;BME280;58696;52.134;5.500;2023-02-16T06:18:23;102390.94;;;5.41;85.42
71043;BME280;58696;52.134;5.500;2023-02-16T06:20:50;102395.09;;;5.42;85.42
71043;BME280;58696;52.134;5.500;2023-02-16T06:23:18;102399.38;;;5.41;85.47
71043;BME280;58696;52.134;5.500;2023-02-16T06:25:48;102401.72;;;5.44;85.50
71043;BME280;58696;52.134;5.500;2023-02-16T06:28:17;102395.81;;;5.44;85.50
71043;BME280;58696;52.134;5.500;2023-02-16T06:30:45;102403.34;;;5.45;85.31
71043;BME280;58696;52.134;5.500;2023-02-16T06:33:11;102406.84;;;5.44;85.21
71043;BME280;58696;52.134;5.500;2023-02-16T06:35:40;102398.38;;;5.44;85.41
71043;BME280;58696;52.134;5.500;2023-02-16T06:38:07;102405.19;;;5.43;85.51
71043;BME280;58696;52.134;5.500;2023-02-16T06:40:34;102407.66;;;5.45;85.38
71043;BME280;58696;52.134;5.500;2023-02-16T06:43:02;102402.53;;;5.45;85.56
71043;BME280;58696;52.134;5.500;2023-02-16T06:45:29;102407.72;;;5.43;85.46
71043;BME280;58696;52.134;5.500;2023-02-16T06:47:57;102406.84;;;5.44;85.60
71043;BME280;58696;52.134;5.500;2023-02-16T06:50:26;102404.28;;;5.44;85.64
71043;BME280;58696;52.134;5.500;2023-02-16T06:52:52;102406.84;;;5.44;85.41
71043;BME280;58696;52.134;5.500;2023-02-16T06:55:20;102405.19;;;5.43;85.74
71043;BME280;58696;52.134;5.500;2023-02-16T06:57:47;102402.53;;;5.45;85.86
71043;BME280;58696;52.134;5.500;2023-02-16T07:00:15;102400.69;;;5.47;85.83
71043;BME280;58696;52.134;5.500;2023-02-16T07:02:42;102393.72;;;5.49;85.81
71043;BME280;58696;52.134;5.500;2023-02-16T07:05:09;102392.03;;;5.49;85.78
71043;BME280;58696;52.134;5.500;2023-02-16T07:07:36;102395.38;;;5.50;85.91
71043;BME280;58696;52.134;5.500;2023-02-16T07:10:06;102405.59;;;5.50;85.88
71043;BME280;58696;52.134;5.500;2023-02-16T07:12:35;102407.19;;;5.51;86.00
71043;BME280;58696;52.134;5.500;2023-02-16T07:15:05;102395.06;;;5.54;85.92
71043;BME280;58696;52.134;5.500;2023-02-16T07:17:34;102408.50;;;5.57;85.80
71043;BME280;58696;52.134;5.500;2023-02-16T07:20:01;102419.31;;;5.60;85.92
71043;BME280;58696;52.134;5.500;2023-02-16T07:22:32;102418.94;;;5.65;86.18
71043;BME280;58696;52.134;5.500;2023-02-16T07:24:59;102415.38;;;5.67;85.92
71043;BME280;58696;52.134;5.500;2023-02-16T07:27:26;102413.44;;;5.71;85.86
71043;BME280;58696;52.134;5.500;2023-02-16T07:29:55;102417.34;;;5.75;85.88
71043;BME280;58696;52.134;5.500;2023-02-16T07:32:22;102418.88;;;5.77;85.32
71043;BME280;58696;52.134;5.500;2023-02-16T07:34:49;102417.84;;;5.80;85.62
71043;BME280;58696;52.134;5.500;2023-02-16T07:37:18;102421.91;;;5.83;85.94
71043;BME280;58696;52.134;5.500;2023-02-16T07:39:45;102432.81;;;5.85;85.49
71043;BME280;58696;52.134;5.500;2023-02-16T07:42:12;102424.16;;;5.87;85.55
71043;BME280;58696;52.134;5.500;2023-02-16T07:44:39;102425.66;;;5.90;85.22
71043;BME280;58696;52.134;5.500;2023-02-16T07:47:06;102427.19;;;5.92;85.33
71043;BME280;58696;52.134;5.500;2023-02-16T07:49:32;102434.75;;;5.94;85.29
71043;BME280;58696;52.134;5.500;2023-02-16T07:52:13;102446.56;;;5.95;85.30
71043;BME280;58696;52.134;5.500;2023-02-16T07:54:41;102440.53;;;5.96;85.19
71043;BME280;58696;52.134;5.500;2023-02-16T07:57:22;102432.75;;;5.97;85.55
71043;BME280;58696;52.134;5.500;2023-02-16T07:59:52;102439.59;;;5.97;85.32
71043;BME280;58696;52.134;5.500;2023-02-16T08:02:20;102439.50;;;5.98;85.51
71043;BME280;58696;52.134;5.500;2023-02-16T08:04:50;102449.72;;;5.98;85.57
71043;BME280;58696;52.134;5.500;2023-02-16T08:07:21;102446.13;;;6.01;85.45
71043;BME280;58696;52.134;5.500;2023-02-16T08:09:48;102442.63;;;6.02;85.53
71043;BME280;58696;52.134;5.500;2023-02-16T08:12:15;102447.66;;;6.03;85.57
71043;BME280;58696;52.134;5.500;2023-02-16T08:14:43;102452.63;;;6.05;85.59
71043;BME280;58696;52.134;5.500;2023-02-16T08:17:13;102452.50;;;6.06;85.53
71043;BME280;58696;52.134;5.500;2023-02-16T08:19:40;102462.59;;;6.08;85.40
71043;BME280;58696;52.134;5.500;2023-02-16T08:22:10;102459.16;;;6.09;85.54
71043;BME280;58696;52.134;5.500;2023-02-16T08:24:38;102456.34;;;6.12;85.62
71043;BME280;58696;52.134;5.500;2023-02-16T08:27:06;102458.78;;;6.14;85.50
71043;BME280;58696;52.134;5.500;2023-02-16T08:29:32;102453.59;;;6.15;85.75
71043;BME280;58696;52.134;5.500;2023-02-16T08:31:59;102457.88;;;6.15;85.96
71043;BME280;58696;52.134;5.500;2023-02-16T08:34:34;102463.78;;;6.15;85.99
71043;BME280;58696;52.134;5.500;2023-02-16T08:37:00;102456.94;;;6.16;86.19
71043;BME280;58696;52.134;5.500;2023-02-16T08:39:30;102462.63;;;6.19;86.52
71043;BME280;58696;52.134;5.500;2023-02-16T08:41:59;102471.81;;;6.22;86.36
71043;BME280;58696;52.134;5.500;2023-02-16T08:44:26;102471.56;;;6.25;86.31
71043;BME280;58696;52.134;5.500;2023-02-16T08:46:55;102472.28;;;6.27;85.95
71043;BME280;58696;52.134;5.500;2023-02-16T08:49:22;102465.31;;;6.29;85.91
71043;BME280;58696;52.134;5.500;2023-02-16T08:51:52;102461.84;;;6.30;86.07
71043;BME280;58696;52.134;5.500;2023-02-16T08:54:26;102464.28;;;6.31;86.00
71043;BME280;58696;52.134;5.500;2023-02-16T08:56:53;102466.59;;;6.35;86.08
71043;BME280;58696;52.134;5.500;2023-02-16T08:59:22;102474.16;;;6.36;86.05
71043;BME280;58696;52.134;5.500;2023-02-16T09:01:51;102475.88;;;6.36;85.85
71043;BME280;58696;52.134;5.500;2023-02-16T09:04:20;102471.50;;;6.38;86.03
71043;BME280;58696;52.134;5.500;2023-02-16T09:06:47;102473.94;;;6.39;85.87
71043;BME280;58696;52.134;5.500;2023-02-16T09:09:14;102475.53;;;6.40;85.99
71043;BME280;58696;52.134;5.500;2023-02-16T09:11:45;102477.16;;;6.41;86.26
71043;BME280;58696;52.134;5.500;2023-02-16T09:14:16;102472.06;;;6.41;86.37
71043;BME280;58696;52.134;5.500;2023-02-16T09:16:44;102473.81;;;6.41;86.39
71043;BME280;58696;52.134;5.500;2023-02-16T09:19:13;102479.97;;;6.38;86.41
71043;BME280;58696;52.134;5.500;2023-02-16T09:21:40;102479.16;;;6.38;86.83
71043;BME280;58696;52.134;5.500;2023-02-16T09:24:10;102478.34;;;6.37;87.04
71043;BME280;58696;52.134;5.500;2023-02-16T09:26:38;102478.56;;;6.34;87.33
71043;BME280;58696;52.134;5.500;2023-02-16T09:29:12;102477.06;;;6.31;87.64
71043;BME280;58696;52.134;5.500;2023-02-16T09:31:40;102477.97;;;6.30;87.85
71043;BME280;58696;52.134;5.500;2023-02-16T09:34:19;102488.28;;;6.29;88.26
71043;BME280;58696;52.134;5.500;2023-02-16T09:36:47;102472.97;;;6.29;88.65
71043;BME280;58696;52.134;5.500;2023-02-16T09:39:17;102476.94;;;6.33;88.79
71043;BME280;58696;52.134;5.500;2023-02-16T09:42:05;102461.50;;;6.35;89.12
71043;BME280;58696;52.134;5.500;2023-02-16T09:47:23;102449.31;;;6.38;89.11
71043;BME280;58696;52.134;5.500;2023-02-16T09:49:52;102461.97;;;6.40;89.21
71043;BME280;58696;52.134;5.500;2023-02-16T09:52:52;102471.97;;;6.43;89.73
71043;BME280;58696;52.134;5.500;2023-02-16T09:55:24;102472.44;;;6.48;89.79
71043;BME280;58696;52.134;5.500;2023-02-16T09:58:36;102468.50;;;6.55;90.16
71043;BME280;58696;52.134;5.500;2023-02-16T10:03:56;102486.84;;;6.60;90.10
71043;BME280;58696;52.134;5.500;2023-02-16T10:09:03;102484.75;;;6.54;90.03
71043;BME280;58696;52.134;5.500;2023-02-16T10:11:35;102484.97;;;6.51;90.07
71043;BME280;58696;52.134;5.500;2023-02-16T10:17:10;102488.91;;;6.44;90.73
71043;BME280;58696;52.134;5.500;2023-02-16T10:19:48;102478.81;;;6.42;90.54
71043;BME280;58696;52.134;5.500;2023-02-16T10:22:33;102489.13;;;6.41;90.70
71043;BME280;58696;52.134;5.500;2023-02-16T10:25:09;102472.06;;;6.41;90.58
71043;BME280;58696;52.134;5.500;2023-02-16T10:27:40;102478.00;;;6.42;90.80
71043;BME280;58696;52.134;5.500;2023-02-16T10:30:18;102476.03;;;6.45;90.93
71043;BME280;58696;52.134;5.500;2023-02-16T10:33:00;102476.38;;;6.52;90.99
71043;BME280;58696;52.134;5.500;2023-02-16T10:35:49;102478.50;;;6.58;91.08
71043;BME280;58696;52.134;5.500;2023-02-16T10:40:58;102476.84;;;6.68;91.27
71043;BME280;58696;52.134;5.500;2023-02-16T10:43:40;102473.72;;;6.76;91.33
71043;BME280;58696;52.134;5.500;2023-02-16T10:46:09;102474.88;;;6.83;91.37
71043;BME280;58696;52.134;5.500;2023-02-16T10:48:39;102481.38;;;6.87;91.32
71043;BME280;58696;52.134;5.500;2023-02-16T10:51:15;102475.69;;;6.95;91.70
71043;BME280;58696;52.134;5.500;2023-02-16T10:56:40;102470.31;;;7.09;91.43
71043;BME280;58696;52.134;5.500;2023-02-16T10:59:37;102474.28;;;7.13;91.55
71043;BME280;58696;52.134;5.500;2023-02-16T11:02:15;102478.56;;;7.24;91.45
71043;BME280;58696;52.134;5.500;2023-02-16T11:04:44;102468.34;;;7.24;91.44
71043;BME280;58696;52.134;5.500;2023-02-16T11:07:20;102471.34;;;7.29;91.46
71043;BME280;58696;52.134;5.500;2023-02-16T11:09:50;102465.97;;;7.32;91.39
71043;BME280;58696;52.134;5.500;2023-02-16T11:14:57;102459.00;;;7.34;91.54
71043;BME280;58696;52.134;5.500;2023-02-16T11:17:31;102452.69;;;7.38;91.62
71043;BME280;58696;52.134;5.500;2023-02-16T11:20:02;102459.78;;;7.46;91.66
71043;BME280;58696;52.134;5.500;2023-02-16T11:22:36;102448.50;;;7.48;91.59
71043;BME280;58696;52.134;5.500;2023-02-16T11:28:04;102438.69;;;7.53;91.62
71043;BME280;58696;52.134;5.500;2023-02-16T11:33:03;102433.66;;;7.63;91.68
71043;BME280;58696;52.134;5.500;2023-02-16T11:35:40;102424.91;;;7.65;91.78
71043;BME280;58696;52.134;5.500;2023-02-16T11:38:26;102426.16;;;7.71;91.77
71043;BME280;58696;52.134;5.500;2023-02-16T11:40:54;102420.81;;;7.74;91.45
71043;BME280;58696;52.134;5.500;2023-02-16T11:43:21;102422.88;;;7.80;91.65
71043;BME280;58696;52.134;5.500;2023-02-16T11:48:31;102420.13;;;7.93;91.36
71043;BME280;58696;52.134;5.500;2023-02-16T11:51:03;102417.63;;;8.03;91.50
71043;BME280;58696;52.134;5.500;2023-02-16T11:53:40;102415.78;;;8.05;91.31
71043;BME280;58696;52.134;5.500;2023-02-16T11:58:43;102413.00;;;8.17;91.31
71043;BME280;58696;52.134;5.500;2023-02-16T12:04:02;102416.72;;;8.34;91.34
71043;BME280;58696;52.134;5.500;2023-02-16T12:15:44;102403.56;;;8.39;90.74
71043;BME280;58696;52.134;5.500;2023-02-16T12:18:42;102389.94;;;8.38;90.82
71043;BME280;58696;52.134;5.500;2023-02-16T12:26:56;102388.75;;;8.52;90.33
71043;BME280;58696;52.134;5.500;2023-02-16T12:45:46;102342.75;;;9.86;88.88
71043;BME280;58696;52.134;5.500;2023-02-16T12:48:39;102330.16;;;9.93;88.29
71043;BME280;58696;52.134;5.500;2023-02-16T12:51:16;102331.13;;;9.82;88.15
71043;BME280;58696;52.134;5.500;2023-02-16T12:54:23;102331.13;;;9.82;87.77
71043;BME280;58696;52.134;5.500;2023-02-16T12:56:59;102317.09;;;9.77;87.85
71043;BME280;58696;52.134;5.500;2023-02-16T13:05:13;102305.56;;;9.90;87.16
71043;BME280;58696;52.134;5.500;2023-02-16T13:07:50;102315.34;;;10.14;87.02
71043;BME280;58696;52.134;5.500;2023-02-16T13:10:29;102310.09;;;10.06;86.33
71043;BME280;58696;52.134;5.500;2023-02-16T13:13:16;102310.56;;;9.92;86.43
71043;BME280;58696;52.134;5.500;2023-02-16T13:15:46;102323.94;;;9.95;86.53
71043;BME280;58696;52.134;5.500;2023-02-16T13:18:24;102310.56;;;9.92;86.45
71043;BME280;58696;52.134;5.500;2023-02-16T13:24:18;102305.44;;;9.92;86.60
71043;BME280;58696;52.134;5.500;2023-02-16T13:29:56;102303.47;;;10.04;86.29
71043;BME280;58696;52.134;5.500;2023-02-16T13:35:43;102285.06;;;10.08;86.03
71043;BME280;58696;52.134;5.500;2023-02-16T13:41:31;102279.84;;;10.00;85.78
71043;BME280;58696;52.134;5.500;2023-02-16T13:44:11;102275.06;;;10.05;85.49
71043;BME280;58696;52.134;5.500;2023-02-16T13:46:46;102274.22;;;10.14;85.52
71043;BME280;58696;52.134;5.500;2023-02-16T13:49:29;102268.91;;;10.25;85.02
71043;BME280;58696;52.134;5.500;2023-02-16T13:51:58;102254.47;;;10.24;84.89
71043;BME280;58696;52.134;5.500;2023-02-16T13:54:33;102253.06;;;10.30;84.83
71043;BME280;58696;52.134;5.500;2023-02-16T13:57:02;102246.28;;;10.39;84.44
71043;BME280;58696;52.134;5.500;2023-02-16T14:02:10;102242.00;;;10.30;84.17
71043;BME280;58696;52.134;5.500;2023-02-16T14:14:58;102232.16;;;10.15;84.20
71043;BME280;58696;52.134;5.500;2023-02-16T14:17:34;102233.94;;;10.15;84.41
71043;BME280;58696;52.134;5.500;2023-02-16T14:22:48;102234.72;;;10.15;83.92
71043;BME280;58696;52.134;5.500;2023-02-16T14:30:24;102213.38;;;10.15;84.21
71043;BME280;58696;52.134;5.500;2023-02-16T14:35:31;102208.63;;;10.20;84.29
71043;BME280;58696;52.134;5.500;2023-02-16T14:38:03;102208.06;;;10.26;84.27
71043;BME280;58696;52.134;5.500;2023-02-16T14:40:52;102214.97;;;10.25;83.95
71043;BME280;58696;52.134;5.500;2023-02-16T14:43:44;102208.44;;;10.31;83.74
71043;BME280;58696;52.134;5.500;2023-02-16T14:46:29;102206.22;;;10.36;83.95
71043;BME280;58696;52.134;5.500;2023-02-16T14:58:02;102209.25;;;10.32;83.82
71043;BME280;58696;52.134;5.500;2023-02-16T15:00:42;102205.88;;;10.31;83.65
71043;BME280;58696;52.134;5.500;2023-02-16T15:03:25;102207.94;;;10.27;83.73
71043;BME280;58696;52.134;5.500;2023-02-16T15:06:00;102208.88;;;10.26;83.79
71043;BME280;58696;52.134;5.500;2023-02-16T15:08:33;102214.31;;;10.23;83.29
71043;BME280;58696;52.134;5.500;2023-02-16T15:13:44;102214.06;;;10.17;83.49
71043;BME280;58696;52.134;5.500;2023-02-16T15:16:12;102205.53;;;10.16;83.48
71043;BME280;58696;52.134;5.500;2023-02-16T15:18:54;102205.81;;;10.13;83.17
71043;BME280;58696;52.134;5.500;2023-02-16T15:21:26;102206.09;;;10.10;83.33
71043;BME280;58696;52.134;5.500;2023-02-16T15:23:57;102215.88;;;10.07;83.41
71043;BME280;58696;52.134;5.500;2023-02-16T15:26:34;102210.06;;;10.05;83.34
71043;BME280;58696;52.134;5.500;2023-02-16T15:29:20;102200.09;;;10.01;83.34
71043;BME280;58696;52.134;5.500;2023-02-16T15:31:48;102206.47;;;9.97;83.87
71043;BME280;58696;52.134;5.500;2023-02-16T15:34:31;102215.53;;;9.92;84.09
71043;BME280;58696;52.134;5.500;2023-02-16T15:37:01;102216.28;;;9.84;84.70
71043;BME280;58696;52.134;5.500;2023-02-16T15:39:44;102217.66;;;9.79;85.08
71043;BME280;58696;52.134;5.500;2023-02-16T15:42:32;102209.69;;;9.72;85.27
71043;BME280;58696;52.134;5.500;2023-02-16T15:44:59;102214.31;;;9.68;85.56
71043;BME280;58696;52.134;5.500;2023-02-16T15:47:29;102215.53;;;9.64;85.85
71043;BME280;58696;52.134;5.500;2023-02-16T15:49:55;102213.13;;;9.63;86.16
71043;BME280;58696;52.134;5.500;2023-02-16T15:52:31;102209.88;;;9.61;86.44
71043;BME280;58696;52.134;5.500;2023-02-16T15:55:01;102217.88;;;9.58;86.68